Presidio of Monterey, California
Current Conditions -  °F | °C
As of 6:54 AM on Sunday 23 Nov 2014 (Local Time) from KMRY Reporting Station
Clear Clear  
Wind Chill: 44°   Ceiling: Unl
Heat Index: 46°   Visibility: 10mi
Dew Point: 46°   Wind: 5mph
Humidity: 100%   Direction: 80°E
Pressure: 30.28"   Gusts: NA
Location:  36.5816°N, 121.843°W
Report Text: KMRY 231454Z 08004KT 10SM CLR 08/08 A3028 RMK AO2 SLP267 T00780078 53013
Loading
Personal Weather Stations






























Interactive Weather Map New forecast layout! Learn more

10-Day Weather Forecast

Advertisements
Track Severe Weather on mobile